Terminal Aerodrome Forecast
Issued by NWS Brownsville, TX

Home | Current Version | Previous Version | Text Only | Print | Product List | Glossary On
Versions: 1 2 3 4 5 6 7 8 9 10 11 12 13 14 15 16 17 18 19 20 21 22 23 24 25 26 27
119
FTUS44 KBRO 061120
TAFBRO
TAF
KBRO 061120Z 0612/0712 VRB03KT P6SM SKC
      TEMPO 0612/0613 3SM BR
     FM061500 18006KT P6SM SKC
     FM070100 VRB04KT P6SM SKC=

USA.gov is the U.S. government's official web portal to all federal, state and local government web resources and services.